sensor_id;sensor_type;location;lat;lon;timestamp;temperature;humidity
23681;DHT22;62915;50.832;4.462;2022-08-16T00:01:56;23.00;99.90
23681;DHT22;62915;50.832;4.462;2022-08-16T00:04:22;23.00;99.90
23681;DHT22;62915;50.832;4.462;2022-08-16T00:06:48;23.00;99.90
23681;DHT22;62915;50.832;4.462;2022-08-16T00:09:13;22.90;99.90
23681;DHT22;62915;50.832;4.462;2022-08-16T00:11:41;22.90;99.90
23681;DHT22;62915;50.832;4.462;2022-08-16T00:14:12;22.90;99.90
23681;DHT22;62915;50.832;4.462;2022-08-16T00:16:38;22.90;99.90
23681;DHT22;62915;50.832;4.462;2022-08-16T00:19:05;22.80;99.90
23681;DHT22;62915;50.832;4.462;2022-08-16T00:21:32;22.80;99.90
23681;DHT22;62915;50.832;4.462;2022-08-16T00:23:58;22.80;99.90
23681;DHT22;62915;50.832;4.462;2022-08-16T00:26:26;22.70;99.90
23681;DHT22;62915;50.832;4.462;2022-08-16T00:28:51;22.70;99.90
23681;DHT22;62915;50.832;4.462;2022-08-16T00:31:17;22.60;99.90
23681;DHT22;62915;50.832;4.462;2022-08-16T00:33:43;22.50;99.90
23681;DHT22;62915;50.832;4.462;2022-08-16T00:36:09;22.50;99.90
23681;DHT22;62915;50.832;4.462;2022-08-16T00:38:35;22.50;99.90
23681;DHT22;62915;50.832;4.462;2022-08-16T00:41:00;22.50;99.90
23681;DHT22;62915;50.832;4.462;2022-08-16T00:43:34;22.50;99.90
23681;DHT22;62915;50.832;4.462;2022-08-16T00:48:40;22.50;99.90
23681;DHT22;62915;50.832;4.462;2022-08-16T00:51:06;22.40;99.90
23681;DHT22;62915;50.832;4.462;2022-08-16T00:53:33;22.40;99.90
23681;DHT22;62915;50.832;4.462;2022-08-16T00:56:03;22.50;99.90
23681;DHT22;62915;50.832;4.462;2022-08-16T00:58:30;22.50;99.90
23681;DHT22;62915;50.832;4.462;2022-08-16T01:00:57;22.50;99.90
23681;DHT22;62915;50.832;4.462;2022-08-16T01:03:26;22.50;99.90
23681;DHT22;62915;50.832;4.462;2022-08-16T01:05:53;22.60;99.90
23681;DHT22;62915;50.832;4.462;2022-08-16T01:08:21;22.60;99.90
23681;DHT22;62915;50.832;4.462;2022-08-16T01:10:49;22.60;99.90
23681;DHT22;62915;50.832;4.462;2022-08-16T01:13:22;22.60;99.90
23681;DHT22;62915;50.832;4.462;2022-08-16T01:15:58;22.60;99.90
23681;DHT22;62915;50.832;4.462;2022-08-16T01:18:34;22.60;99.90
23681;DHT22;62915;50.832;4.462;2022-08-16T01:21:25;22.50;99.90
23681;DHT22;62915;50.832;4.462;2022-08-16T01:26:36;22.40;99.90
23681;DHT22;62915;50.832;4.462;2022-08-16T01:29:07;22.40;99.90
23681;DHT22;62915;50.832;4.462;2022-08-16T01:31:34;22.40;99.90
23681;DHT22;62915;50.832;4.462;2022-08-16T01:34:00;22.40;99.90
23681;DHT22;62915;50.832;4.462;2022-08-16T01:36:26;22.40;99.90
23681;DHT22;62915;50.832;4.462;2022-08-16T01:38:52;22.40;99.90
23681;DHT22;62915;50.832;4.462;2022-08-16T01:41:24;22.40;99.90
23681;DHT22;62915;50.832;4.462;2022-08-16T01:43:52;22.40;99.90
23681;DHT22;62915;50.832;4.462;2022-08-16T01:48:46;22.30;99.90
23681;DHT22;62915;50.832;4.462;2022-08-16T01:51:13;22.30;99.90
23681;DHT22;62915;50.832;4.462;2022-08-16T01:53:40;22.30;99.90
23681;DHT22;62915;50.832;4.462;2022-08-16T01:56:06;22.30;99.90
23681;DHT22;62915;50.832;4.462;2022-08-16T01:58:32;22.20;99.90
23681;DHT22;62915;50.832;4.462;2022-08-16T02:00:57;22.20;99.90
23681;DHT22;62915;50.832;4.462;2022-08-16T02:03:23;22.30;99.90
23681;DHT22;62915;50.832;4.462;2022-08-16T02:05:49;22.20;99.90
23681;DHT22;62915;50.832;4.462;2022-08-16T02:08:14;22.20;99.90
23681;DHT22;62915;50.832;4.462;2022-08-16T02:10:40;22.20;99.90
23681;DHT22;62915;50.832;4.462;2022-08-16T02:13:07;22.20;99.90
23681;DHT22;62915;50.832;4.462;2022-08-16T02:15:34;22.20;99.90
23681;DHT22;62915;50.832;4.462;2022-08-16T02:18:02;22.10;99.90
23681;DHT22;62915;50.832;4.462;2022-08-16T02:20:32;22.10;99.90
23681;DHT22;62915;50.832;4.462;2022-08-16T02:22:59;22.00;99.90
23681;DHT22;62915;50.832;4.462;2022-08-16T02:25:25;22.00;99.90
23681;DHT22;62915;50.832;4.462;2022-08-16T02:27:52;22.00;99.90
23681;DHT22;62915;50.832;4.462;2022-08-16T02:30:22;21.90;99.90
23681;DHT22;62915;50.832;4.462;2022-08-16T02:32:48;21.90;99.90
23681;DHT22;62915;50.832;4.462;2022-08-16T02:35:14;21.90;99.90
23681;DHT22;62915;50.832;4.462;2022-08-16T02:37:40;21.90;99.90
23681;DHT22;62915;50.832;4.462;2022-08-16T02:40:08;21.90;99.90
23681;DHT22;62915;50.832;4.462;2022-08-16T02:42:35;21.90;99.90
23681;DHT22;62915;50.832;4.462;2022-08-16T02:45:01;21.90;99.90
23681;DHT22;62915;50.832;4.462;2022-08-16T02:47:27;21.80;99.90
23681;DHT22;62915;50.832;4.462;2022-08-16T02:49:53;21.80;99.90
23681;DHT22;62915;50.832;4.462;2022-08-16T02:52:19;21.80;99.90
23681;DHT22;62915;50.832;4.462;2022-08-16T02:54:45;21.80;99.90
23681;DHT22;62915;50.832;4.462;2022-08-16T02:57:10;21.80;99.90
23681;DHT22;62915;50.832;4.462;2022-08-16T02:59:36;21.80;99.90
23681;DHT22;62915;50.832;4.462;2022-08-16T03:02:04;21.80;99.90
23681;DHT22;62915;50.832;4.462;2022-08-16T03:04:29;21.70;99.90
23681;DHT22;62915;50.832;4.462;2022-08-16T03:06:55;21.70;99.90
23681;DHT22;62915;50.832;4.462;2022-08-16T03:09:21;21.70;99.90
23681;DHT22;62915;50.832;4.462;2022-08-16T03:11:47;21.60;99.90
23681;DHT22;62915;50.832;4.462;2022-08-16T03:14:13;21.70;99.90
23681;DHT22;62915;50.832;4.462;2022-08-16T03:16:39;21.60;99.90
23681;DHT22;62915;50.832;4.462;2022-08-16T03:19:06;21.70;99.90
23681;DHT22;62915;50.832;4.462;2022-08-16T03:21:31;21.70;99.90
23681;DHT22;62915;50.832;4.462;2022-08-16T03:23:57;21.70;99.90
23681;DHT22;62915;50.832;4.462;2022-08-16T03:26:23;21.70;99.90
23681;DHT22;62915;50.832;4.462;2022-08-16T03:28:48;21.70;99.90
23681;DHT22;62915;50.832;4.462;2022-08-16T03:31:14;21.60;99.90
23681;DHT22;62915;50.832;4.462;2022-08-16T03:33:40;21.60;99.90
23681;DHT22;62915;50.832;4.462;2022-08-16T03:36:07;21.60;99.90
23681;DHT22;62915;50.832;4.462;2022-08-16T03:38:34;21.60;99.90
23681;DHT22;62915;50.832;4.462;2022-08-16T03:41:00;21.50;99.90
23681;DHT22;62915;50.832;4.462;2022-08-16T03:43:28;21.50;99.90
23681;DHT22;62915;50.832;4.462;2022-08-16T03:45:55;21.40;99.90
23681;DHT22;62915;50.832;4.462;2022-08-16T03:48:23;21.40;99.90
23681;DHT22;62915;50.832;4.462;2022-08-16T03:50:49;21.40;99.90
23681;DHT22;62915;50.832;4.462;2022-08-16T03:53:15;21.40;99.90
23681;DHT22;62915;50.832;4.462;2022-08-16T03:55:41;21.40;99.90
23681;DHT22;62915;50.832;4.462;2022-08-16T03:58:07;21.40;99.90
23681;DHT22;62915;50.832;4.462;2022-08-16T04:00:33;21.40;99.90
23681;DHT22;62915;50.832;4.462;2022-08-16T04:03:00;21.40;99.90
23681;DHT22;62915;50.832;4.462;2022-08-16T04:05:35;21.30;99.90
23681;DHT22;62915;50.832;4.462;2022-08-16T04:08:02;21.30;99.90
23681;DHT22;62915;50.832;4.462;2022-08-16T04:10:28;21.30;99.90
23681;DHT22;62915;50.832;4.462;2022-08-16T04:12:55;21.30;99.90
23681;DHT22;62915;50.832;4.462;2022-08-16T04:15:22;21.30;99.90
23681;DHT22;62915;50.832;4.462;2022-08-16T04:17:48;21.30;99.90
23681;DHT22;62915;50.832;4.462;2022-08-16T04:20:14;21.20;99.90
23681;DHT22;62915;50.832;4.462;2022-08-16T04:22:41;21.20;99.90
23681;DHT22;62915;50.832;4.462;2022-08-16T04:25:09;21.30;99.90
23681;DHT22;62915;50.832;4.462;2022-08-16T04:27:35;21.20;99.90
23681;DHT22;62915;50.832;4.462;2022-08-16T04:30:05;21.20;99.90
23681;DHT22;62915;50.832;4.462;2022-08-16T04:32:31;21.20;99.90
23681;DHT22;62915;50.832;4.462;2022-08-16T04:34:56;21.20;99.90
23681;DHT22;62915;50.832;4.462;2022-08-16T04:37:22;21.20;99.90
23681;DHT22;62915;50.832;4.462;2022-08-16T04:39:48;21.20;99.90
23681;DHT22;62915;50.832;4.462;2022-08-16T04:42:15;21.20;99.90
23681;DHT22;62915;50.832;4.462;2022-08-16T04:44:42;21.10;99.90
23681;DHT22;62915;50.832;4.462;2022-08-16T04:47:08;21.10;99.90
23681;DHT22;62915;50.832;4.462;2022-08-16T04:49:34;21.10;99.90
23681;DHT22;62915;50.832;4.462;2022-08-16T04:52:00;21.10;99.90
23681;DHT22;62915;50.832;4.462;2022-08-16T04:54:26;21.10;99.90
23681;DHT22;62915;50.832;4.462;2022-08-16T04:56:52;21.00;99.90
23681;DHT22;62915;50.832;4.462;2022-08-16T04:59:18;21.10;99.90
23681;DHT22;62915;50.832;4.462;2022-08-16T05:01:43;21.10;99.90
23681;DHT22;62915;50.832;4.462;2022-08-16T05:04:09;21.00;99.90
23681;DHT22;62915;50.832;4.462;2022-08-16T05:06:35;21.00;99.90
23681;DHT22;62915;50.832;4.462;2022-08-16T05:09:01;21.10;99.90
23681;DHT22;62915;50.832;4.462;2022-08-16T05:11:27;21.10;99.90
23681;DHT22;62915;50.832;4.462;2022-08-16T05:13:54;21.20;99.90
23681;DHT22;62915;50.832;4.462;2022-08-16T05:16:25;21.20;99.90
23681;DHT22;62915;50.832;4.462;2022-08-16T05:18:53;21.10;99.90
23681;DHT22;62915;50.832;4.462;2022-08-16T05:21:20;21.00;99.90
23681;DHT22;62915;50.832;4.462;2022-08-16T05:23:46;21.10;99.90
23681;DHT22;62915;50.832;4.462;2022-08-16T05:26:12;21.10;99.90
23681;DHT22;62915;50.832;4.462;2022-08-16T05:28:38;21.10;99.90
23681;DHT22;62915;50.832;4.462;2022-08-16T05:31:04;21.20;99.90
23681;DHT22;62915;50.832;4.462;2022-08-16T05:33:29;21.20;99.90
23681;DHT22;62915;50.832;4.462;2022-08-16T05:35:55;21.20;99.90
23681;DHT22;62915;50.832;4.462;2022-08-16T05:38:21;21.20;99.90
23681;DHT22;62915;50.832;4.462;2022-08-16T05:40:57;21.20;99.90
23681;DHT22;62915;50.832;4.462;2022-08-16T05:43:23;21.20;99.90
23681;DHT22;62915;50.832;4.462;2022-08-16T05:45:50;21.30;99.90
23681;DHT22;62915;50.832;4.462;2022-08-16T05:48:16;21.30;99.90
23681;DHT22;62915;50.832;4.462;2022-08-16T05:50:42;21.30;99.90
23681;DHT22;62915;50.832;4.462;2022-08-16T05:53:08;21.40;99.90
23681;DHT22;62915;50.832;4.462;2022-08-16T05:55:34;21.40;99.90
23681;DHT22;62915;50.832;4.462;2022-08-16T05:58:00;21.40;99.90
23681;DHT22;62915;50.832;4.462;2022-08-16T06:00:26;21.50;99.90
23681;DHT22;62915;50.832;4.462;2022-08-16T06:02:53;21.50;99.90
23681;DHT22;62915;50.832;4.462;2022-08-16T06:05:19;21.60;99.90
23681;DHT22;62915;50.832;4.462;2022-08-16T06:07:44;21.60;99.90
23681;DHT22;62915;50.832;4.462;2022-08-16T06:10:11;21.50;99.90
23681;DHT22;62915;50.832;4.462;2022-08-16T06:12:38;21.60;99.90
23681;DHT22;62915;50.832;4.462;2022-08-16T06:15:13;21.60;99.90
23681;DHT22;62915;50.832;4.462;2022-08-16T06:17:40;21.60;99.90
23681;DHT22;62915;50.832;4.462;2022-08-16T06:20:06;21.60;99.90
23681;DHT22;62915;50.832;4.462;2022-08-16T06:22:33;21.60;99.90
23681;DHT22;62915;50.832;4.462;2022-08-16T06:24:59;21.60;99.90
23681;DHT22;62915;50.832;4.462;2022-08-16T06:27:25;21.60;99.90
23681;DHT22;62915;50.832;4.462;2022-08-16T06:29:51;21.70;99.90
23681;DHT22;62915;50.832;4.462;2022-08-16T06:32:16;21.70;99.90
23681;DHT22;62915;50.832;4.462;2022-08-16T06:34:42;21.70;99.90
23681;DHT22;62915;50.832;4.462;2022-08-16T06:37:08;21.80;99.90
23681;DHT22;62915;50.832;4.462;2022-08-16T06:39:34;21.80;99.90
23681;DHT22;62915;50.832;4.462;2022-08-16T06:42:00;21.90;99.90
23681;DHT22;62915;50.832;4.462;2022-08-16T06:44:26;22.00;99.90
23681;DHT22;62915;50.832;4.462;2022-08-16T06:46:52;22.00;99.90
23681;DHT22;62915;50.832;4.462;2022-08-16T06:49:17;22.00;99.90
23681;DHT22;62915;50.832;4.462;2022-08-16T06:51:43;22.00;99.90
23681;DHT22;62915;50.832;4.462;2022-08-16T06:54:09;22.00;99.90
23681;DHT22;62915;50.832;4.462;2022-08-16T06:56:35;22.00;99.90
23681;DHT22;62915;50.832;4.462;2022-08-16T06:59:01;22.10;99.90
23681;DHT22;62915;50.832;4.462;2022-08-16T07:01:27;22.10;99.90
23681;DHT22;62915;50.832;4.462;2022-08-16T07:03:53;22.20;99.90
23681;DHT22;62915;50.832;4.462;2022-08-16T07:06:20;22.30;99.90
23681;DHT22;62915;50.832;4.462;2022-08-16T07:08:48;22.30;99.90
23681;DHT22;62915;50.832;4.462;2022-08-16T07:11:17;22.40;99.90
23681;DHT22;62915;50.832;4.462;2022-08-16T07:13:46;22.40;99.90
23681;DHT22;62915;50.832;4.462;2022-08-16T07:16:13;22.60;99.90
23681;DHT22;62915;50.832;4.462;2022-08-16T07:18:44;22.70;99.90
23681;DHT22;62915;50.832;4.462;2022-08-16T07:21:13;22.80;99.90
23681;DHT22;62915;50.832;4.462;2022-08-16T07:23:42;22.80;99.90
23681;DHT22;62915;50.832;4.462;2022-08-16T07:26:15;22.90;99.90
23681;DHT22;62915;50.832;4.462;2022-08-16T07:28:43;23.00;99.90
23681;DHT22;62915;50.832;4.462;2022-08-16T07:31:09;23.00;99.90
23681;DHT22;62915;50.832;4.462;2022-08-16T07:33:35;23.10;99.90
23681;DHT22;62915;50.832;4.462;2022-08-16T07:36:06;23.20;99.90
23681;DHT22;62915;50.832;4.462;2022-08-16T07:38:33;23.20;99.90
23681;DHT22;62915;50.832;4.462;2022-08-16T07:40:59;23.40;99.90
23681;DHT22;62915;50.832;4.462;2022-08-16T07:43:25;23.40;99.90
23681;DHT22;62915;50.832;4.462;2022-08-16T07:45:52;23.50;99.90
23681;DHT22;62915;50.832;4.462;2022-08-16T07:48:18;23.60;99.90
23681;DHT22;62915;50.832;4.462;2022-08-16T07:50:45;23.70;99.90
23681;DHT22;62915;50.832;4.462;2022-08-16T07:53:13;23.80;99.90
23681;DHT22;62915;50.832;4.462;2022-08-16T07:55:40;23.90;99.90
23681;DHT22;62915;50.832;4.462;2022-08-16T07:58:06;24.00;99.90
23681;DHT22;62915;50.832;4.462;2022-08-16T08:00:33;24.00;99.90
23681;DHT22;62915;50.832;4.462;2022-08-16T08:02:59;24.00;99.90
23681;DHT22;62915;50.832;4.462;2022-08-16T08:05:26;24.10;99.90
23681;DHT22;62915;50.832;4.462;2022-08-16T08:07:52;24.20;99.90
23681;DHT22;62915;50.832;4.462;2022-08-16T08:10:19;24.30;99.90
23681;DHT22;62915;50.832;4.462;2022-08-16T08:12:49;24.40;99.90
23681;DHT22;62915;50.832;4.462;2022-08-16T08:15:16;24.50;99.90
23681;DHT22;62915;50.832;4.462;2022-08-16T08:17:42;24.60;99.90
23681;DHT22;62915;50.832;4.462;2022-08-16T08:20:11;24.70;99.90
23681;DHT22;62915;50.832;4.462;2022-08-16T08:22:37;24.90;99.90
23681;DHT22;62915;50.832;4.462;2022-08-16T08:25:04;25.20;99.90
23681;DHT22;62915;50.832;4.462;2022-08-16T08:27:30;25.50;99.90
23681;DHT22;62915;50.832;4.462;2022-08-16T08:29:56;25.60;99.90
23681;DHT22;62915;50.832;4.462;2022-08-16T08:32:22;25.80;99.90
23681;DHT22;62915;50.832;4.462;2022-08-16T08:34:49;25.90;99.90
23681;DHT22;62915;50.832;4.462;2022-08-16T08:37:15;26.00;99.90
23681;DHT22;62915;50.832;4.462;2022-08-16T08:39:41;26.10;99.90
23681;DHT22;62915;50.832;4.462;2022-08-16T08:42:07;26.30;99.90
23681;DHT22;62915;50.832;4.462;2022-08-16T08:44:34;26.30;99.90
23681;DHT22;62915;50.832;4.462;2022-08-16T08:47:02;26.40;99.90
23681;DHT22;62915;50.832;4.462;2022-08-16T08:49:29;26.50;99.90
23681;DHT22;62915;50.832;4.462;2022-08-16T08:51:55;26.60;99.90
23681;DHT22;62915;50.832;4.462;2022-08-16T08:54:21;26.70;99.90
23681;DHT22;62915;50.832;4.462;2022-08-16T08:56:46;26.80;99.90
23681;DHT22;62915;50.832;4.462;2022-08-16T08:59:12;26.90;99.90
23681;DHT22;62915;50.832;4.462;2022-08-16T09:01:42;27.00;99.90
23681;DHT22;62915;50.832;4.462;2022-08-16T09:04:09;27.20;99.90
23681;DHT22;62915;50.832;4.462;2022-08-16T09:06:35;27.20;99.90
23681;DHT22;62915;50.832;4.462;2022-08-16T09:09:02;27.40;99.90
23681;DHT22;62915;50.832;4.462;2022-08-16T09:11:28;27.60;99.90
23681;DHT22;62915;50.832;4.462;2022-08-16T09:13:54;27.90;99.90
23681;DHT22;62915;50.832;4.462;2022-08-16T09:16:19;28.10;99.90
23681;DHT22;62915;50.832;4.462;2022-08-16T09:18:46;28.00;99.90
23681;DHT22;62915;50.832;4.462;2022-08-16T09:21:12;28.10;99.90
23681;DHT22;62915;50.832;4.462;2022-08-16T09:23:39;28.10;99.90
23681;DHT22;62915;50.832;4.462;2022-08-16T09:26:07;28.20;99.90
23681;DHT22;62915;50.832;4.462;2022-08-16T09:28:36;28.30;99.90
23681;DHT22;62915;50.832;4.462;2022-08-16T09:31:05;28.40;99.90
23681;DHT22;62915;50.832;4.462;2022-08-16T09:33:31;28.50;99.90
23681;DHT22;62915;50.832;4.462;2022-08-16T09:35:57;28.50;99.90
23681;DHT22;62915;50.832;4.462;2022-08-16T09:38:24;28.40;99.90
23681;DHT22;62915;50.832;4.462;2022-08-16T09:40:50;28.40;99.90
23681;DHT22;62915;50.832;4.462;2022-08-16T09:43:18;28.50;99.90
23681;DHT22;62915;50.832;4.462;2022-08-16T09:45:45;28.50;99.90
23681;DHT22;62915;50.832;4.462;2022-08-16T09:48:12;28.60;99.90
23681;DHT22;62915;50.832;4.462;2022-08-16T09:50:39;28.80;99.90
23681;DHT22;62915;50.832;4.462;2022-08-16T09:53:13;29.00;99.90
23681;DHT22;62915;50.832;4.462;2022-08-16T09:55:41;29.30;99.90
23681;DHT22;62915;50.832;4.462;2022-08-16T09:58:08;29.50;99.90
23681;DHT22;62915;50.832;4.462;2022-08-16T10:00:34;29.60;99.90
23681;DHT22;62915;50.832;4.462;2022-08-16T10:03:00;29.70;99.60
23681;DHT22;62915;50.832;4.462;2022-08-16T10:05:25;29.70;98.90
23681;DHT22;62915;50.832;4.462;2022-08-16T10:07:51;29.40;99.10
23681;DHT22;62915;50.832;4.462;2022-08-16T10:10:21;29.10;99.00
23681;DHT22;62915;50.832;4.462;2022-08-16T10:12:48;28.80;99.90
23681;DHT22;62915;50.832;4.462;2022-08-16T10:15:34;28.50;99.90
23681;DHT22;62915;50.832;4.462;2022-08-16T10:18:02;28.30;99.90
23681;DHT22;62915;50.832;4.462;2022-08-16T10:20:34;28.10;99.90
23681;DHT22;62915;50.832;4.462;2022-08-16T10:23:02;28.00;99.90
23681;DHT22;62915;50.832;4.462;2022-08-16T10:25:28;27.70;99.90
23681;DHT22;62915;50.832;4.462;2022-08-16T10:27:54;27.40;99.90
23681;DHT22;62915;50.832;4.462;2022-08-16T10:30:20;27.30;99.90
23681;DHT22;62915;50.832;4.462;2022-08-16T10:32:46;27.30;99.90
23681;DHT22;62915;50.832;4.462;2022-08-16T10:35:12;27.30;99.90
23681;DHT22;62915;50.832;4.462;2022-08-16T10:37:37;27.30;99.90
23681;DHT22;62915;50.832;4.462;2022-08-16T10:40:06;27.30;99.90
23681;DHT22;62915;50.832;4.462;2022-08-16T10:42:33;27.30;99.90
23681;DHT22;62915;50.832;4.462;2022-08-16T10:44:58;27.30;99.90
23681;DHT22;62915;50.832;4.462;2022-08-16T10:47:24;27.40;99.90
23681;DHT22;62915;50.832;4.462;2022-08-16T10:49:50;27.50;99.90
23681;DHT22;62915;50.832;4.462;2022-08-16T10:52:16;27.70;99.90
23681;DHT22;62915;50.832;4.462;2022-08-16T10:54:42;27.90;99.90
23681;DHT22;62915;50.832;4.462;2022-08-16T10:57:07;28.20;99.90
23681;DHT22;62915;50.832;4.462;2022-08-16T10:59:34;28.40;99.90
23681;DHT22;62915;50.832;4.462;2022-08-16T11:01:59;28.60;99.90
23681;DHT22;62915;50.832;4.462;2022-08-16T11:04:26;28.80;99.90
23681;DHT22;62915;50.832;4.462;2022-08-16T11:06:52;28.90;99.90
23681;DHT22;62915;50.832;4.462;2022-08-16T11:09:22;29.10;99.90
23681;DHT22;62915;50.832;4.462;2022-08-16T11:11:48;29.20;99.90
23681;DHT22;62915;50.832;4.462;2022-08-16T11:14:13;29.20;99.50
23681;DHT22;62915;50.832;4.462;2022-08-16T11:16:41;29.30;99.90
23681;DHT22;62915;50.832;4.462;2022-08-16T11:19:07;29.40;99.90
23681;DHT22;62915;50.832;4.462;2022-08-16T11:21:34;29.40;99.90
23681;DHT22;62915;50.832;4.462;2022-08-16T11:24:02;29.60;99.90
23681;DHT22;62915;50.832;4.462;2022-08-16T11:26:28;29.80;99.60
23681;DHT22;62915;50.832;4.462;2022-08-16T11:28:54;30.10;99.30
23681;DHT22;62915;50.832;4.462;2022-08-16T11:31:25;30.10;98.50
23681;DHT22;62915;50.832;4.462;2022-08-16T11:33:51;30.30;98.60
23681;DHT22;62915;50.832;4.462;2022-08-16T11:36:17;30.40;97.60
23681;DHT22;62915;50.832;4.462;2022-08-16T11:38:44;30.50;97.90
23681;DHT22;62915;50.832;4.462;2022-08-16T11:41:11;30.60;98.10
23681;DHT22;62915;50.832;4.462;2022-08-16T11:43:38;30.60;97.30
23681;DHT22;62915;50.832;4.462;2022-08-16T11:46:10;30.50;97.70
23681;DHT22;62915;50.832;4.462;2022-08-16T11:48:35;30.50;97.30
23681;DHT22;62915;50.832;4.462;2022-08-16T11:51:02;30.50;98.10
23681;DHT22;62915;50.832;4.462;2022-08-16T11:53:29;30.70;98.60
23681;DHT22;62915;50.832;4.462;2022-08-16T11:55:57;30.80;98.10
23681;DHT22;62915;50.832;4.462;2022-08-16T11:58:24;30.90;96.60
23681;DHT22;62915;50.832;4.462;2022-08-16T12:00:51;30.90;97.00
23681;DHT22;62915;50.832;4.462;2022-08-16T12:03:18;30.80;96.80
23681;DHT22;62915;50.832;4.462;2022-08-16T12:05:44;30.80;97.10
23681;DHT22;62915;50.832;4.462;2022-08-16T12:08:11;30.90;96.30
23681;DHT22;62915;50.832;4.462;2022-08-16T12:10:38;31.00;97.00
23681;DHT22;62915;50.832;4.462;2022-08-16T12:13:06;31.10;96.40
23681;DHT22;62915;50.832;4.462;2022-08-16T12:15:32;31.20;97.20
23681;DHT22;62915;50.832;4.462;2022-08-16T12:17:58;31.30;96.30
23681;DHT22;62915;50.832;4.462;2022-08-16T12:20:26;31.30;95.70
23681;DHT22;62915;50.832;4.462;2022-08-16T12:22:53;31.40;97.50
23681;DHT22;62915;50.832;4.462;2022-08-16T12:25:23;31.60;97.70
23681;DHT22;62915;50.832;4.462;2022-08-16T12:27:49;31.60;96.40
23681;DHT22;62915;50.832;4.462;2022-08-16T12:30:22;31.60;96.30
23681;DHT22;62915;50.832;4.462;2022-08-16T12:32:48;31.60;95.90
23681;DHT22;62915;50.832;4.462;2022-08-16T12:35:17;31.50;96.80
23681;DHT22;62915;50.832;4.462;2022-08-16T12:37:44;31.30;95.90
23681;DHT22;62915;50.832;4.462;2022-08-16T12:40:13;31.20;96.70
23681;DHT22;62915;50.832;4.462;2022-08-16T12:42:40;31.10;96.80
23681;DHT22;62915;50.832;4.462;2022-08-16T12:45:09;31.00;96.70
23681;DHT22;62915;50.832;4.462;2022-08-16T12:47:36;31.00;97.50
23681;DHT22;62915;50.832;4.462;2022-08-16T12:50:20;31.00;96.90
23681;DHT22;62915;50.832;4.462;2022-08-16T12:52:46;30.80;97.10
23681;DHT22;62915;50.832;4.462;2022-08-16T12:55:13;30.70;98.00
23681;DHT22;62915;50.832;4.462;2022-08-16T12:57:38;30.60;98.20
23681;DHT22;62915;50.832;4.462;2022-08-16T13:00:08;30.60;98.30
23681;DHT22;62915;50.832;4.462;2022-08-16T13:02:37;30.50;96.70
23681;DHT22;62915;50.832;4.462;2022-08-16T13:05:04;30.50;96.80
23681;DHT22;62915;50.832;4.462;2022-08-16T13:07:30;30.50;97.30
23681;DHT22;62915;50.832;4.462;2022-08-16T13:09:58;30.50;98.10
23681;DHT22;62915;50.832;4.462;2022-08-16T13:12:34;30.50;98.00
23681;DHT22;62915;50.832;4.462;2022-08-16T13:15:04;30.40;98.00
23681;DHT22;62915;50.832;4.462;2022-08-16T13:17:30;30.40;97.70
23681;DHT22;62915;50.832;4.462;2022-08-16T13:19:56;30.50;96.20
23681;DHT22;62915;50.832;4.462;2022-08-16T13:22:22;30.50;97.60
23681;DHT22;62915;50.832;4.462;2022-08-16T13:24:48;30.60;98.10
23681;DHT22;62915;50.832;4.462;2022-08-16T13:27:15;30.70;97.00
23681;DHT22;62915;50.832;4.462;2022-08-16T13:29:41;30.80;97.60
23681;DHT22;62915;50.832;4.462;2022-08-16T13:32:07;30.90;96.50
23681;DHT22;62915;50.832;4.462;2022-08-16T13:34:34;30.80;96.30
23681;DHT22;62915;50.832;4.462;2022-08-16T13:37:00;30.70;97.40
23681;DHT22;62915;50.832;4.462;2022-08-16T13:39:26;30.60;96.60
23681;DHT22;62915;50.832;4.462;2022-08-16T13:41:51;30.50;97.60
23681;DHT22;62915;50.832;4.462;2022-08-16T13:44:18;30.60;97.70
23681;DHT22;62915;50.832;4.462;2022-08-16T13:46:44;30.60;96.60
23681;DHT22;62915;50.832;4.462;2022-08-16T13:49:12;30.60;96.60
23681;DHT22;62915;50.832;4.462;2022-08-16T13:51:38;30.50;96.70
23681;DHT22;62915;50.832;4.462;2022-08-16T13:54:04;30.40;96.20
23681;DHT22;62915;50.832;4.462;2022-08-16T13:56:35;30.30;96.80
23681;DHT22;62915;50.832;4.462;2022-08-16T13:59:01;30.30;97.00
23681;DHT22;62915;50.832;4.462;2022-08-16T14:01:27;30.30;97.20
23681;DHT22;62915;50.832;4.462;2022-08-16T14:03:53;30.30;97.00
23681;DHT22;62915;50.832;4.462;2022-08-16T14:06:19;30.30;96.70
23681;DHT22;62915;50.832;4.462;2022-08-16T14:08:45;30.40;97.00
23681;DHT22;62915;50.832;4.462;2022-08-16T14:11:13;30.40;95.70
23681;DHT22;62915;50.832;4.462;2022-08-16T14:13:41;30.30;96.10
23681;DHT22;62915;50.832;4.462;2022-08-16T14:16:07;30.20;96.30
23681;DHT22;62915;50.832;4.462;2022-08-16T14:18:33;30.10;96.80
23681;DHT22;62915;50.832;4.462;2022-08-16T14:20:59;30.00;96.00
23681;DHT22;62915;50.832;4.462;2022-08-16T14:23:24;30.00;96.30
23681;DHT22;62915;50.832;4.462;2022-08-16T14:25:50;29.90;96.50
23681;DHT22;62915;50.832;4.462;2022-08-16T14:28:17;30.00;97.00
23681;DHT22;62915;50.832;4.462;2022-08-16T14:30:43;29.90;96.90
23681;DHT22;62915;50.832;4.462;2022-08-16T14:33:09;29.80;96.50
23681;DHT22;62915;50.832;4.462;2022-08-16T14:35:35;29.80;97.90
23681;DHT22;62915;50.832;4.462;2022-08-16T14:38:01;29.80;97.30
23681;DHT22;62915;50.832;4.462;2022-08-16T14:40:27;29.70;97.30
23681;DHT22;62915;50.832;4.462;2022-08-16T14:42:54;29.70;96.50
23681;DHT22;62915;50.832;4.462;2022-08-16T14:45:23;29.80;97.10
23681;DHT22;62915;50.832;4.462;2022-08-16T14:47:49;29.90;96.80
23681;DHT22;62915;50.832;4.462;2022-08-16T14:50:18;29.90;97.00
23681;DHT22;62915;50.832;4.462;2022-08-16T14:52:47;30.10;97.60
23681;DHT22;62915;50.832;4.462;2022-08-16T14:55:14;30.10;97.40
23681;DHT22;62915;50.832;4.462;2022-08-16T14:57:40;30.20;97.70
23681;DHT22;62915;50.832;4.462;2022-08-16T15:00:09;30.20;96.40
23681;DHT22;62915;50.832;4.462;2022-08-16T15:02:37;30.30;96.60
23681;DHT22;62915;50.832;4.462;2022-08-16T15:05:04;30.40;96.20
23681;DHT22;62915;50.832;4.462;2022-08-16T15:07:31;30.50;95.90
23681;DHT22;62915;50.832;4.462;2022-08-16T15:09:56;30.50;96.30
23681;DHT22;62915;50.832;4.462;2022-08-16T15:12:23;30.40;96.10
23681;DHT22;62915;50.832;4.462;2022-08-16T15:14:52;30.40;96.20
23681;DHT22;62915;50.832;4.462;2022-08-16T15:17:19;30.30;95.60
23681;DHT22;62915;50.832;4.462;2022-08-16T15:19:45;30.30;95.60
23681;DHT22;62915;50.832;4.462;2022-08-16T15:22:14;30.30;96.30
23681;DHT22;62915;50.832;4.462;2022-08-16T15:24:41;30.40;96.20
23681;DHT22;62915;50.832;4.462;2022-08-16T15:27:07;30.30;96.00
23681;DHT22;62915;50.832;4.462;2022-08-16T15:29:33;30.30;95.40
23681;DHT22;62915;50.832;4.462;2022-08-16T15:31:59;30.20;95.80
23681;DHT22;62915;50.832;4.462;2022-08-16T15:34:24;30.20;95.40
23681;DHT22;62915;50.832;4.462;2022-08-16T15:36:51;30.10;95.20